Airfield :
LOGIN :

Register | Disclaimer

   EN    FR    IT 

 










Legend :    VFR   Marginal VFR   IFR   Intensive IFR   Very Intensive IFR
Visi :
Ceiling :
>= 8 km
>= 3000ft
5 to 8 km
1000 to 3000 ft
1500m to 5 km
500 to 1000 ft
800 to 1500m
200 to 500 ft
< 800m
< 200 ft
Symbols :   Thunderstorms  Fog  Heavy snow  Heavy precipitations  Wind > 20 kt
SIGMETs :     Misc.  Thunderstorms  Icing  Turbulence  Mountain Waves  Volcanic Ashes






- Airport Elevation : 200 ft


EBBL - Klein Brogel AB

CURRENT METAR :
  • 221025Z 02010KT 9999 FEW023 OVC030 15/11 Q1016 BLU BLU TEMPO WHT

EXPIRED METARs :
  • 220955Z 02008KT 9999 FEW014 SCT028 OVC033 15/11 Q1016 BLU BLU TEMPO WHT
  • 220925Z 02010KT 9999 FEW014 SCT025 OVC033 15/11 Q1016 BLU BLU TEMPO WHT
  • 220855Z 02009KT 9999 FEW014 SCT025 OVC095 15/11 Q1016 BLU BLU TEMPO WHT
  • 220825Z 02008KT 9999 FEW014 SCT020 OVC095 14/11 Q1016 WHT BLU TEMPO WHT
  • 220755Z 03008KT 9999 FEW014 SCT020 OVC095 14/12 Q1016 WHT BLU TEMPO WHT

TAF AMD TAF EBBL
Valid from the 22 at 10:00 until the 22 at 19:00 UTC


220923Z 2210/2219 03010KT 9999 SCT030 OVC080
TEMPO 2210/2219 5000 -RA -SHRA SCT025 OVC080
TEMPO 2210/2219 4000 RA BKN025 OVC080
BECMG 2216/2218 35010KT



MET'MAP, your aeronautical weather chart ! - Copyright ORBIFLY December 2007 - Disclaimer

ORBIFLY MET'MAP TEAM :

Programming & Development : Alexandra Zaïnal
Concept & original design : Baudouin d'Aumeries
Assistance for programming : Marc-Olivier Méhu
Technical & hardware support : Manuel Goepfert

Contact : metmap@orbifly.com




SOURCES & CREDITS :

   NOAA